KMRC

Maury County Airport

Columbia/Mount Pleasant, Tennessee, USA
METAR KMRC 160155Z AUTO 00000KT 10SM CLR 07/07 A3000 RMK A01
Observed Flight Rules
Dec-16 @ 01:55 UTC (30 minutes ago) Visual Flight Rules
Visibility Clouds
10 miles
  • Clear skies
Temperatures Readings
Current 7°C / 45°F
Dewpoint 7°C / 45°F
Humidity 100%
Altimeter 30" Hg
Pressure 1016 hPa
Elevation 208
METAR KMRC 160155Z AUTO 00000KT 10SM CLR 07/07 A3000 RMK A01
Observed Flight Rules
Dec-16 @ 01:55 UTC
(30 minutes ago)
VFR
Clouds
  • Clear skies
Temperature Dewpoint
7°C / 45°F 7°C / 45°F
Humidity Altimeter Pressure
100% 30" Hg 1016 hPa